Rye, New Hampshire
Current Conditions -  °F | °C
As of 9:58 AM on Saturday 20 Dec 2014 (Local Time) from KPSM Reporting Station
Broken Clouds Broken Clouds  
Wind Chill: 19°   Ceiling: 2400
Heat Index: 28°   Visibility: 10mi
Dew Point: 19°   Wind: 9mph
Humidity: 71%   Direction: 350°N
Pressure: 30.3"   Gusts: NA
Location:  43.01°N, 70.77°W
Report Text: KPSM 201458Z 35008KT 10SM SCT019 BKN024 M02/M07 A3030 RMK AO2A SLP265 T10241070 50017
Loading
Personal Weather Stations






























Interactive Weather Map New forecast layout! Learn more

10-Day Weather Forecast

Advertisements
Track Severe Weather on mobile